YOP weather

Rainbow Lake Airport
Rainbow Lake, Alberta, Canada

Public forecast

Using degrees Celsius for public forecast. Weather courtesy of forecast.io.

METAR (pilot weather report)

Closest report is High Level Airport, 70.7 nm (130.9 km) E. Retrieved 2019/08/24 23:00 UTC (16 minutes ago):

CYOJ 242300Z 34004KT 15SM FEW065 BKN090 BKN260 20/09 A2958 RMK SC2AC4CI1 CI TR CVCTV CLD EMBD SLP028 DENSITY ALT 2300FT

TAF (pilot weather forecast)

Closest forecast is High Level Airport, 70.7 nm (130.9 km) E. Retrieved 2019/08/24 19:39 UTC (4 hours ago):

TAF CYOJ 241838Z 2419/2507 VRB03KT P6SM SCT060 BKN080 FM242200 23008KT P6SM SCT040 TEMPO 2422/2502 P6SM -SHRA VCTS BKN040CB FM250200 VRB03KT P6SM FEW060 RMK NXT FCST BY 250100Z